createdAt,value
2022-09-26T00:03:14.390Z,4.13
2022-09-26T00:08:18.408Z,4.03
2022-09-26T00:13:23.697Z,5.10
2022-09-26T00:18:27.925Z,3.63
2022-09-26T00:23:31.850Z,3.10
2022-09-26T00:28:37.408Z,3.70
2022-09-26T00:33:41.453Z,3.88
2022-09-26T00:38:46.911Z,4.70
2022-09-26T00:43:53.853Z,4.53
2022-09-26T00:49:07.995Z,4.18
2022-09-26T00:54:14.707Z,4.25
2022-09-26T00:59:24.361Z,4.88
2022-09-26T01:04:30.480Z,5.68
2022-09-26T01:09:35.015Z,7.07
2022-09-26T01:14:42.998Z,8.57
2022-09-26T01:20:00.810Z,5.93
2022-09-26T01:25:23.332Z,6.63
2022-09-26T01:30:35.311Z,5.60
2022-09-26T01:36:02.055Z,6.60
2022-09-26T01:46:27.550Z,5.40
2022-09-26T01:56:41.509Z,7.10
2022-09-26T02:01:49.751Z,7.95
2022-09-26T02:06:59.583Z,6.43
2022-09-26T02:12:08.601Z,5.55
2022-09-26T02:17:22.923Z,5.68
2022-09-26T02:22:29.113Z,7.68
2022-09-26T02:27:33.151Z,5.47
2022-09-26T02:32:40.573Z,7.30
2022-09-26T02:37:44.635Z,6.20
2022-09-26T02:42:55.238Z,6.93
2022-09-26T02:48:39.943Z,7.35
2022-09-26T02:54:00.097Z,7.68
2022-09-26T02:59:22.660Z,6.68
2022-09-26T03:04:37.805Z,6.13
2022-09-26T03:09:44.740Z,6.53
2022-09-26T03:14:58.450Z,7.63
2022-09-26T03:20:10.221Z,6.50
2022-09-26T03:25:20.828Z,7.80
2022-09-26T03:30:42.834Z,7.55
2022-09-26T03:36:09.595Z,9.25
2022-09-26T03:41:17.144Z,7.43
2022-09-26T03:46:40.246Z,7.10
2022-09-26T03:51:47.676Z,8.05
2022-09-26T03:56:51.681Z,8.13
2022-09-26T04:01:55.724Z,9.15
2022-09-26T04:07:02.056Z,8.00
2022-09-26T04:12:06.245Z,12.55
2022-09-26T04:17:13.234Z,9.32
2022-09-26T04:22:21.765Z,8.50
2022-09-26T04:27:28.892Z,11.50
2022-09-26T04:38:13.623Z,8.55
2022-09-26T04:43:17.523Z,8.95
2022-09-26T04:48:21.763Z,9.70
2022-09-26T04:53:51.395Z,9.55
2022-09-26T04:59:02.340Z,11.45
2022-09-26T05:04:27.764Z,11.02
2022-09-26T05:09:36.146Z,10.18
2022-09-26T05:14:44.775Z,12.45
2022-09-26T05:19:48.838Z,10.48
2022-09-26T05:25:17.878Z,13.10
2022-09-26T05:30:21.855Z,10.27
2022-09-26T05:35:28.330Z,13.10
2022-09-26T05:40:51.454Z,11.65
2022-09-26T05:45:58.680Z,8.23
2022-09-26T05:51:09.224Z,13.40
2022-09-26T05:56:19.743Z,15.98
2022-09-26T06:01:39.106Z,11.45
2022-09-26T06:06:54.234Z,16.35
2022-09-26T06:11:59.781Z,12.85
2022-09-26T06:17:04.310Z,7.07
2022-09-26T06:22:08.425Z,8.00
2022-09-26T06:27:13.752Z,10.98
2022-09-26T06:32:17.874Z,9.35
2022-09-26T06:37:56.301Z,18.17
2022-09-26T06:43:02.105Z,10.93
2022-09-26T06:48:25.113Z,18.45
2022-09-26T06:53:49.266Z,8.95
2022-09-26T06:58:58.794Z,10.40
2022-09-26T07:04:09.492Z,12.85
2022-09-26T07:09:33.789Z,9.93
2022-09-26T07:15:04.133Z,10.43
2022-09-26T07:20:11.110Z,15.30
2022-09-26T07:25:33.806Z,15.48
2022-09-26T07:30:40.727Z,12.48
2022-09-26T07:35:52.107Z,18.98
2022-09-26T07:41:00.906Z,7.50
2022-09-26T07:46:24.379Z,13.23
2022-09-26T07:51:31.549Z,13.32
2022-09-26T07:56:38.461Z,7.20
2022-09-26T08:02:07.358Z,7.82
2022-09-26T08:07:18.684Z,7.57
2022-09-26T08:12:36.759Z,5.00
2022-09-26T08:18:00.874Z,8.70
2022-09-26T08:23:04.998Z,12.02
2022-09-26T08:28:12.958Z,10.55
2022-09-26T08:33:21.279Z,8.02
2022-09-26T08:38:25.587Z,6.70
2022-09-26T08:44:02.811Z,8.15
2022-09-26T08:49:41.882Z,5.32
2022-09-26T08:54:48.501Z,5.65
2022-09-26T08:59:54.620Z,6.07
2022-09-26T09:05:06.203Z,7.32
2022-09-26T09:10:19.262Z,11.90
2022-09-26T09:15:46.620Z,12.15
2022-09-26T09:21:09.730Z,4.68
2022-09-26T09:32:29.393Z,6.72
2022-09-26T09:37:54.410Z,6.30
2022-09-26T09:43:26.141Z,5.93
2022-09-26T09:48:30.285Z,7.63
2022-09-26T09:53:53.886Z,9.48
2022-09-26T09:59:14.068Z,10.63
2022-09-26T10:09:46.329Z,7.30
2022-09-26T10:15:07.739Z,7.68
2022-09-26T10:20:36.466Z,8.27
2022-09-26T10:25:48.621Z,7.32
2022-09-26T10:30:57.174Z,10.48
2022-09-26T10:36:11.825Z,16.85
2022-09-26T10:46:33.349Z,13.35
2022-09-26T10:52:04.617Z,7.68
2022-09-26T10:57:21.079Z,7.20
2022-09-26T11:02:26.520Z,13.93
2022-09-26T11:13:03.578Z,10.38
2022-09-26T11:18:12.319Z,10.35
2022-09-26T11:23:31.882Z,13.10
2022-09-26T11:28:42.477Z,8.40
2022-09-26T11:34:02.525Z,8.07
2022-09-26T11:39:40.803Z,8.93
2022-09-26T11:44:55.618Z,8.85
2022-09-26T11:50:23.751Z,20.00
2022-09-26T11:56:11.712Z,9.82
2022-09-26T12:01:27.732Z,8.93
2022-09-26T12:06:37.301Z,9.95
2022-09-26T12:11:54.432Z,10.18
2022-09-26T12:17:08.690Z,9.52
2022-09-26T12:22:32.066Z,7.82
2022-09-26T12:27:46.211Z,7.55
2022-09-26T12:33:10.070Z,6.78
2022-09-26T12:38:33.017Z,6.35
2022-09-26T12:44:07.798Z,7.55
2022-09-26T12:49:34.528Z,6.57
2022-09-26T12:55:05.220Z,6.00
2022-09-26T13:00:18.743Z,6.25
2022-09-26T13:05:48.706Z,8.43
2022-09-26T13:11:11.380Z,7.38
2022-09-26T13:16:34.179Z,9.18
2022-09-26T13:21:48.741Z,9.55
2022-09-26T13:27:00.658Z,8.80
2022-09-26T13:32:15.957Z,7.93
2022-09-26T13:37:31.811Z,7.57
2022-09-26T13:42:46.768Z,8.20
2022-09-26T13:47:56.672Z,8.50
2022-09-26T13:53:11.231Z,8.02
2022-09-26T13:58:24.909Z,7.28
2022-09-26T14:03:42.683Z,9.93
2022-09-26T14:09:15.724Z,6.88
2022-09-26T14:14:25.260Z,10.00
2022-09-26T14:19:37.023Z,8.73
2022-09-26T14:24:42.681Z,11.32
2022-09-26T14:29:51.999Z,10.80
2022-09-26T14:34:59.306Z,11.60
2022-09-26T14:40:23.243Z,10.68
2022-09-26T14:45:33.850Z,7.90
2022-09-26T14:50:44.901Z,7.80
2022-09-26T14:56:00.641Z,8.10
2022-09-26T15:01:06.611Z,8.43
2022-09-26T15:06:13.979Z,9.27
2022-09-26T15:11:27.866Z,12.10
2022-09-26T15:16:38.198Z,12.27
2022-09-26T15:21:44.968Z,11.48
2022-09-26T15:26:51.187Z,11.82
2022-09-26T15:31:56.076Z,11.82
2022-09-26T15:37:02.249Z,13.23
2022-09-26T15:42:48.847Z,13.05
2022-09-26T15:47:53.282Z,15.95
2022-09-26T15:53:02.193Z,14.20
2022-09-26T15:58:08.777Z,17.00
2022-09-26T16:03:35.754Z,13.98
2022-09-26T16:08:43.163Z,12.32
2022-09-26T16:13:51.434Z,13.15
2022-09-26T16:18:58.664Z,13.00
2022-09-26T16:24:27.540Z,12.02
2022-09-26T16:29:35.272Z,14.27
2022-09-26T16:34:39.257Z,15.75
2022-09-26T16:39:44.082Z,15.25
2022-09-26T16:44:54.877Z,21.07
2022-09-26T16:50:16.961Z,17.25
2022-09-26T16:55:21.700Z,20.38
2022-09-26T17:00:49.952Z,18.45
2022-09-26T17:05:57.001Z,20.58
2022-09-26T17:11:02.875Z,21.20
2022-09-26T17:16:08.913Z,21.30
2022-09-26T17:21:14.836Z,24.17
2022-09-26T17:26:21.716Z,24.27
2022-09-26T17:31:27.349Z,23.75
2022-09-26T17:36:31.248Z,24.95
2022-09-26T17:41:37.897Z,26.77
2022-09-26T17:46:48.345Z,29.75
2022-09-26T17:51:56.023Z,27.10
2022-09-26T17:57:01.157Z,33.53
2022-09-26T18:02:20.145Z,35.88
2022-09-26T18:07:24.435Z,35.70
2022-09-26T18:12:28.168Z,32.35
2022-09-26T18:17:33.460Z,33.42
2022-09-26T18:22:37.235Z,29.83
2022-09-26T18:27:40.844Z,32.30
2022-09-26T18:32:50.756Z,28.40
2022-09-26T18:37:56.643Z,27.80
2022-09-26T18:48:08.145Z,45.03
2022-09-26T18:53:14.551Z,39.63
2022-09-26T18:58:25.664Z,37.58
2022-09-26T19:03:33.284Z,53.80
2022-09-26T19:08:39.297Z,49.75
2022-09-26T19:13:43.812Z,40.72
2022-09-26T19:18:50.353Z,35.03
2022-09-26T19:23:54.945Z,32.28
2022-09-26T19:29:00.271Z,90.47
2022-09-26T19:34:05.767Z,40.13
2022-09-26T19:39:13.482Z,85.45
2022-09-26T19:44:17.260Z,130.32
2022-09-26T19:49:24.146Z,52.10
2022-09-26T19:54:28.434Z,181.70
2022-09-26T19:59:32.115Z,56.83
2022-09-26T20:04:37.441Z,64.63
2022-09-26T20:09:41.721Z,61.60
2022-09-26T20:14:46.037Z,60.47
2022-09-26T20:19:57.739Z,44.85
2022-09-26T20:25:05.090Z,37.22
2022-09-26T20:30:31.471Z,41.70
2022-09-26T20:35:40.983Z,51.47
2022-09-26T20:40:46.168Z,118.57
2022-09-26T20:45:50.562Z,78.18
2022-09-26T20:50:56.683Z,174.73
2022-09-26T20:56:00.734Z,148.07
2022-09-26T21:01:05.021Z,145.55
2022-09-26T21:06:17.499Z,114.45
2022-09-26T21:11:22.607Z,187.68
2022-09-26T21:16:26.824Z,40.30
2022-09-26T21:21:32.327Z,273.33
2022-09-26T21:26:55.586Z,263.27
2022-09-26T21:32:02.993Z,291.38
2022-09-26T21:37:11.167Z,334.00
2022-09-26T21:42:15.217Z,36.03
2022-09-26T21:47:19.322Z,156.20
2022-09-26T21:52:29.582Z,81.63
2022-09-26T21:57:39.667Z,43.97
2022-09-26T22:02:43.695Z,54.83
2022-09-26T22:07:51.768Z,55.83
2022-09-26T22:12:56.061Z,20.63
2022-09-26T22:18:00.007Z,40.58
2022-09-26T22:23:05.279Z,40.45
2022-09-26T22:28:09.362Z,38.28
2022-09-26T22:33:13.437Z,26.27
2022-09-26T22:38:19.312Z,25.33
2022-09-26T22:43:25.225Z,22.77
2022-09-26T22:48:31.573Z,18.33
2022-09-26T22:53:38.677Z,17.92
2022-09-26T22:58:46.344Z,15.82
2022-09-26T23:03:50.525Z,17.50
2022-09-26T23:08:55.773Z,16.77
2022-09-26T23:13:59.747Z,19.17
2022-09-26T23:19:04.887Z,17.17
2022-09-26T23:24:10.386Z,17.73
2022-09-26T23:29:14.498Z,16.17
2022-09-26T23:34:18.528Z,15.57
2022-09-26T23:39:24.432Z,14.05
2022-09-26T23:44:29.372Z,15.75
2022-09-26T23:49:33.229Z,15.38
2022-09-26T23:54:39.913Z,14.40
2022-09-26T23:59:43.781Z,18.83
